Time;durP1;ratioP1;P1;durP2;ratioP2;P2;SDS_P1;SDS_P2;PMS_P1;PMS_P2;Temp;Humidity;BMP_temperature;BMP_pressure;BME280_temperature;BME280_humidity;BME280_pressure;Samples;Min_cycle;Max_cycle;Signal;HPM_P1;HPM_P2
2021/01/08 00:02:05;;;;;;;0.60;0.20;;;21.00;39.10;;;;;;5068694;28;20028;-48
2021/01/08 00:04:31;;;;;;;0.68;0.20;;;21.00;39.00;;;;;;5071316;28;20623;-48
2021/01/08 00:06:56;;;;;;;1.08;0.20;;;20.90;38.90;;;;;;5070327;28;20088;-48
2021/01/08 00:09:22;;;;;;;0.80;0.30;;;20.90;38.90;;;;;;5052985;28;20518;-47
2021/01/08 00:11:53;;;;;;;0.77;0.20;;;20.90;39.00;;;;;;5049230;28;20024;-47
2021/01/08 00:14:19;;;;;;;0.90;0.20;;;20.90;39.00;;;;;;5050807;28;20025;-48
2021/01/08 00:16:45;;;;;;;0.68;0.32;;;20.90;39.00;;;;;;5048678;28;20029;-50
2021/01/08 00:19:13;;;;;;;0.70;0.30;;;20.90;39.00;;;;;;5050451;28;20103;-48
2021/01/08 00:21:42;;;;;;;1.08;0.28;;;20.90;39.00;;;;;;5049663;28;20029;-49
2021/01/08 00:24:12;;;;;;;0.82;0.30;;;20.90;38.90;;;;;;5050500;28;20086;-49
2021/01/08 00:26:39;;;;;;;0.70;0.20;;;20.80;38.90;;;;;;5042642;28;20529;-48
2021/01/08 00:29:09;;;;;;;0.38;0.13;;;20.80;38.90;;;;;;5048218;28;20060;-47
2021/01/08 00:31:36;;;;;;;2.05;0.20;;;20.80;39.00;;;;;;5050054;28;20454;-48
2021/01/08 00:34:03;;;;;;;0.98;0.30;;;20.70;38.90;;;;;;5049663;28;20029;-48
2021/01/08 00:36:28;;;;;;;4.57;0.40;;;20.80;39.00;;;;;;5044383;28;20021;-47
2021/01/08 00:38:54;;;;;;;0.80;0.17;;;20.70;39.00;;;;;;5046132;28;20060;-47
2021/01/08 00:41:33;;;;;;;1.80;0.20;;;20.70;39.00;;;;;;5035798;28;20500;-50
2021/01/08 00:44:00;;;;;;;0.50;0.20;;;20.70;39.00;;;;;;5045189;28;20036;-49
2021/01/08 00:46:44;;;;;;;0.50;0.17;;;20.70;39.00;;;;;;5046314;28;20104;-47
2021/01/08 00:49:10;;;;;;;0.40;0.20;;;20.70;39.00;;;;;;5039852;28;20832;-48
2021/01/08 00:51:37;;;;;;;0.43;0.15;;;20.60;39.00;;;;;;5050291;28;20053;-49
2021/01/08 00:54:04;;;;;;;0.45;0.20;;;20.60;39.00;;;;;;5049844;28;20040;-48
2021/01/08 00:56:30;;;;;;;0.60;0.20;;;20.60;38.90;;;;;;5047256;28;20456;-50
2021/01/08 00:58:56;;;;;;;0.60;0.20;;;20.60;39.00;;;;;;5042446;28;20033;-48
2021/01/08 01:01:22;;;;;;;0.40;0.20;;;20.60;39.00;;;;;;5051061;28;20134;-48
2021/01/08 01:03:48;;;;;;;0.38;0.10;;;20.60;39.00;;;;;;5035527;28;20534;-49
2021/01/08 01:06:27;;;;;;;0.77;0.22;;;20.50;39.00;;;;;;5046648;28;20068;-50
2021/01/08 01:08:54;;;;;;;0.45;0.10;;;20.50;39.00;;;;;;5049000;28;20493;-49
2021/01/08 01:11:21;;;;;;;0.50;0.20;;;20.50;39.10;;;;;;5046030;28;20486;-50
2021/01/08 01:13:48;;;;;;;0.73;0.20;;;20.50;39.10;;;;;;5038558;28;20037;-48
2021/01/08 01:16:15;;;;;;;0.60;0.20;;;20.50;39.00;;;;;;5054515;28;20088;-53
2021/01/08 01:18:42;;;;;;;0.38;0.15;;;20.40;39.00;;;;;;5051994;28;20064;-50
2021/01/08 01:21:07;;;;;;;0.40;0.20;;;20.40;39.00;;;;;;5045148;28;20051;-49
2021/01/08 01:23:33;;;;;;;0.50;0.20;;;20.40;39.10;;;;;;5049963;28;20041;-48
2021/01/08 01:25:58;;;;;;;0.40;0.10;;;20.40;39.10;;;;;;5045738;28;20494;-48
2021/01/08 01:28:24;;;;;;;0.77;0.47;;;20.40;39.10;;;;;;5044514;28;20034;-47
2021/01/08 01:30:50;;;;;;;0.45;0.20;;;20.40;39.20;;;;;;5049243;28;20022;-49
2021/01/08 01:33:15;;;;;;;0.55;0.10;;;20.30;39.10;;;;;;5046628;28;20327;-48
2021/01/08 01:35:41;;;;;;;1.08;0.20;;;20.40;39.20;;;;;;5042788;28;20531;-50
2021/01/08 01:38:06;;;;;;;0.70;0.10;;;20.30;39.20;;;;;;5034007;28;20091;-50
2021/01/08 01:40:32;;;;;;;0.82;0.10;;;20.30;39.10;;;;;;5030630;28;20040;-50
2021/01/08 01:42:58;;;;;;;0.52;0.20;;;20.30;39.20;;;;;;5037930;28;20052;-47
2021/01/08 01:45:24;;;;;;;0.20;0.10;;;20.30;39.20;;;;;;5048316;28;20076;-48
2021/01/08 01:47:49;;;;;;;0.30;0.10;;;20.30;39.20;;;;;;5033031;28;20096;-49
2021/01/08 01:50:15;;;;;;;0.63;0.20;;;20.30;39.20;;;;;;5044590;28;20693;-49
2021/01/08 01:52:41;;;;;;;0.50;0.10;;;20.20;39.20;;;;;;5047961;28;20064;-47
2021/01/08 01:55:07;;;;;;;0.52;0.10;;;20.20;39.20;;;;;;5049928;28;20064;-47
2021/01/08 01:57:33;;;;;;;0.43;0.10;;;20.20;39.20;;;;;;5042601;28;20025;-47
2021/01/08 01:59:59;;;;;;;0.20;0.10;;;20.20;39.20;;;;;;5038248;28;20030;-49
2021/01/08 02:02:40;;;;;;;0.85;0.10;;;20.20;39.20;;;;;;5036469;28;20136;-50
2021/01/08 02:05:08;;;;;;;0.80;0.10;;;20.20;39.20;;;;;;5041259;28;20021;-47
2021/01/08 02:07:37;;;;;;;0.30;0.10;;;20.20;39.20;;;;;;5046779;28;20296;-50
2021/01/08 02:10:05;;;;;;;0.32;0.10;;;20.20;39.20;;;;;;5048536;28;20060;-48
2021/01/08 02:12:32;;;;;;;0.35;0.10;;;20.20;39.30;;;;;;5048155;28;20109;-48
2021/01/08 02:14:59;;;;;;;0.30;0.10;;;20.20;39.30;;;;;;5047948;28;20024;-48
2021/01/08 02:17:27;;;;;;;0.70;0.15;;;20.20;39.30;;;;;;5036394;28;20033;-47
2021/01/08 02:20:00;;;;;;;0.90;0.10;;;20.10;39.20;;;;;;5039468;28;20024;-47
2021/01/08 02:22:47;;;;;;;0.40;0.10;;;20.10;39.20;;;;;;5049721;28;20032;-47
2021/01/08 02:25:16;;;;;;;0.30;0.10;;;20.10;39.10;;;;;;5050742;28;20029;-45
2021/01/08 02:28:03;;;;;;;0.30;0.10;;;20.10;39.30;;;;;;5049662;28;20486;-49
2021/01/08 02:30:30;;;;;;;0.77;0.10;;;20.10;39.20;;;;;;5036042;28;20038;-50
2021/01/08 02:32:57;;;;;;;0.40;0.10;;;20.00;39.10;;;;;;5050056;28;20021;-49
2021/01/08 02:35:23;;;;;;;0.50;0.10;;;20.10;39.30;;;;;;5046582;28;20029;-48
2021/01/08 02:37:49;;;;;;;0.52;0.10;;;20.00;39.20;;;;;;5049073;28;20094;-46
2021/01/08 02:40:16;;;;;;;0.50;0.10;;;20.00;39.30;;;;;;5033470;28;20112;-48
2021/01/08 02:42:44;;;;;;;0.20;0.10;;;20.00;39.20;;;;;;5049432;28;20039;-50
2021/01/08 02:45:10;;;;;;;0.60;0.20;;;20.10;39.30;;;;;;5052526;28;20037;-49
2021/01/08 02:47:36;;;;;;;0.30;0.10;;;20.00;39.20;;;;;;5050312;28;20100;-49
2021/01/08 02:50:03;;;;;;;0.40;0.10;;;20.00;39.20;;;;;;5052003;28;20152;-51
2021/01/08 02:52:29;;;;;;;0.35;0.10;;;20.00;39.10;;;;;;5050885;28;20044;-49
2021/01/08 02:54:57;;;;;;;1.25;0.03;;;20.00;39.30;;;;;;5051983;28;20029;-48
2021/01/08 02:57:25;;;;;;;0.30;0.10;;;20.00;39.20;;;;;;5048173;28;20036;-50
2021/01/08 02:59:53;;;;;;;0.32;0.10;;;20.00;39.30;;;;;;5052042;28;20037;-50
2021/01/08 03:02:19;;;;;;;0.35;0.10;;;20.00;39.20;;;;;;5051077;28;20429;-50
2021/01/08 03:04:44;;;;;;;0.30;0.10;;;20.00;39.00;;;;;;5044068;28;20036;-48
2021/01/08 03:07:10;;;;;;;0.30;0.10;;;19.90;39.10;;;;;;5047325;28;20029;-49
2021/01/08 03:09:36;;;;;;;0.40;0.10;;;20.00;39.10;;;;;;5051774;28;20452;-50
2021/01/08 03:12:01;;;;;;;1.60;0.10;;;19.90;39.10;;;;;;5049408;28;20104;-48
2021/01/08 03:14:28;;;;;;;0.57;0.10;;;19.90;39.10;;;;;;5041557;28;20033;-50
2021/01/08 03:16:53;;;;;;;0.50;0.10;;;19.90;39.20;;;;;;5045201;28;20492;-48
2021/01/08 03:19:21;;;;;;;0.20;0.10;;;19.90;39.00;;;;;;5044064;28;20051;-47
2021/01/08 03:21:46;;;;;;;0.40;0.10;;;19.90;39.10;;;;;;5051219;28;20025;-49
2021/01/08 03:24:12;;;;;;;0.30;0.10;;;19.90;39.10;;;;;;5051656;28;20031;-49
2021/01/08 03:26:37;;;;;;;0.30;0.10;;;19.90;39.20;;;;;;5046176;28;20025;-49
2021/01/08 03:29:03;;;;;;;0.15;0.10;;;19.90;39.30;;;;;;5051106;28;20052;-48
2021/01/08 03:31:28;;;;;;;0.20;0.10;;;19.80;39.20;;;;;;5043279;28;20037;-49
2021/01/08 03:33:54;;;;;;;0.20;0.10;;;19.90;39.20;;;;;;5051430;28;20065;-48
2021/01/08 03:36:20;;;;;;;0.60;0.30;;;19.80;39.20;;;;;;5041720;28;20676;-49
2021/01/08 03:38:45;;;;;;;0.20;0.00;;;19.80;39.20;;;;;;5044249;28;20559;-49
2021/01/08 03:41:11;;;;;;;0.38;0.10;;;19.80;39.30;;;;;;5032026;28;20532;-48
2021/01/08 03:43:36;;;;;;;0.20;0.00;;;19.80;39.30;;;;;;5043810;28;20032;-48
2021/01/08 03:46:02;;;;;;;0.38;0.10;;;19.80;39.20;;;;;;5051393;28;20170;-48
2021/01/08 03:48:27;;;;;;;0.77;0.10;;;19.80;39.20;;;;;;5043628;28;20033;-46
2021/01/08 03:50:53;;;;;;;0.30;0.10;;;19.80;39.30;;;;;;5047968;28;20079;-49
2021/01/08 03:53:19;;;;;;;0.17;0.00;;;19.70;39.20;;;;;;5039012;28;20037;-49
2021/01/08 03:55:44;;;;;;;1.23;0.10;;;19.70;39.20;;;;;;5042089;28;20047;-49
2021/01/08 03:58:10;;;;;;;0.40;0.10;;;19.70;39.20;;;;;;5046586;28;20056;-49
2021/01/08 04:00:35;;;;;;;0.32;0.10;;;19.80;38.90;;;;;;5050215;28;20478;-48
2021/01/08 04:03:01;;;;;;;0.20;0.10;;;19.70;39.20;;;;;;5046261;28;20023;-48
2021/01/08 04:05:26;;;;;;;0.30;0.10;;;19.70;39.10;;;;;;5043098;28;20486;-45
2021/01/08 04:07:52;;;;;;;0.28;0.08;;;19.70;39.10;;;;;;5039582;28;20068;-49
2021/01/08 04:10:18;;;;;;;0.38;0.03;;;19.70;39.20;;;;;;5043857;28;20032;-50
2021/01/08 04:12:44;;;;;;;0.20;0.00;;;19.80;39.20;;;;;;5049580;28;20066;-50
2021/01/08 04:15:09;;;;;;;0.85;0.00;;;19.70;39.10;;;;;;5050172;28;20452;-48
2021/01/08 04:17:35;;;;;;;0.20;0.00;;;19.70;39.10;;;;;;5036503;28;20065;-49
2021/01/08 04:20:01;;;;;;;0.13;0.00;;;19.70;39.30;;;;;;5044142;28;20242;-49
2021/01/08 04:22:26;;;;;;;0.10;0.00;;;19.70;39.10;;;;;;5048537;28;20029;-47
2021/01/08 04:24:52;;;;;;;0.40;0.10;;;19.70;39.10;;;;;;5042228;28;20048;-47
2021/01/08 04:27:17;;;;;;;0.22;0.00;;;19.70;39.20;;;;;;5044888;28;20509;-49
2021/01/08 04:29:43;;;;;;;0.28;0.00;;;19.70;39.20;;;;;;5050343;28;20021;-48
2021/01/08 04:32:08;;;;;;;0.15;0.00;;;19.70;39.20;;;;;;5038172;28;20108;-50
2021/01/08 04:34:34;;;;;;;0.10;0.00;;;19.70;39.20;;;;;;5046303;28;20028;-48
2021/01/08 04:36:59;;;;;;;0.30;0.10;;;19.60;39.00;;;;;;5044629;28;20036;-49
2021/01/08 04:39:25;;;;;;;0.20;0.00;;;19.60;39.00;;;;;;5050201;28;20033;-49
2021/01/08 04:41:51;;;;;;;0.40;0.00;;;19.60;39.00;;;;;;5042371;28;20054;-49
2021/01/08 04:44:17;;;;;;;0.20;0.00;;;19.60;39.20;;;;;;5045673;28;20029;-47
2021/01/08 04:46:46;;;;;;;0.35;0.10;;;19.60;39.00;;;;;;5045855;28;20032;-50
2021/01/08 04:49:12;;;;;;;0.10;0.00;;;19.70;39.10;;;;;;5050347;28;20029;-48
2021/01/08 04:51:39;;;;;;;0.20;0.00;;;19.60;39.20;;;;;;5049964;28;20064;-48
2021/01/08 04:54:06;;;;;;;0.20;0.00;;;19.60;39.20;;;;;;5045315;28;20025;-47
2021/01/08 04:56:37;;;;;;;0.30;0.10;;;19.60;39.10;;;;;;5041387;28;20048;-49
2021/01/08 04:59:03;;;;;;;0.80;0.10;;;19.60;39.20;;;;;;5052325;28;20112;-46
2021/01/08 05:01:29;;;;;;;0.25;0.00;;;19.60;39.10;;;;;;5048418;28;20031;-47
2021/01/08 05:03:55;;;;;;;0.20;0.10;;;19.60;39.10;;;;;;5048788;28;20036;-49
2021/01/08 05:06:21;;;;;;;0.75;0.10;;;19.60;39.20;;;;;;5039133;28;20042;-48
2021/01/08 05:08:46;;;;;;;0.10;0.00;;;19.60;39.10;;;;;;5041322;28;20051;-49
2021/01/08 05:11:23;;;;;;;0.20;0.10;;;19.60;39.10;;;;;;5044760;28;20495;-49
2021/01/08 05:14:00;;;;;;;0.10;0.00;;;19.60;38.90;;;;;;5045529;28;20029;-45
2021/01/08 05:16:31;;;;;;;0.30;0.05;;;19.60;39.20;;;;;;5041031;28;20101;-49
2021/01/08 05:18:59;;;;;;;0.20;0.10;;;19.60;39.20;;;;;;5049360;28;20031;-48
2021/01/08 05:21:25;;;;;;;0.20;0.00;;;19.60;39.00;;;;;;5049596;28;20037;-48
2021/01/08 05:23:55;;;;;;;0.28;0.08;;;19.60;39.10;;;;;;5046490;28;20025;-49
2021/01/08 05:26:21;;;;;;;0.15;0.00;;;19.60;39.10;;;;;;5042040;28;20028;-49
2021/01/08 05:29:07;;;;;;;0.28;0.00;;;19.60;39.10;;;;;;5031029;28;20043;-48
2021/01/08 05:31:34;;;;;;;0.10;0.00;;;19.60;39.00;;;;;;5031018;28;20033;-49
2021/01/08 05:34:03;;;;;;;0.28;0.00;;;19.60;39.10;;;;;;5045317;28;20040;-49
2021/01/08 05:36:28;;;;;;;0.63;0.10;;;19.60;38.90;;;;;;5030823;28;20021;-48
2021/01/08 05:38:59;;;;;;;0.10;0.00;;;19.60;39.20;;;;;;5030514;28;20524;-48
2021/01/08 05:41:29;;;;;;;0.10;0.00;;;19.60;39.10;;;;;;5045525;28;20107;-49
2021/01/08 05:43:57;;;;;;;0.20;0.00;;;19.50;38.90;;;;;;5042583;28;20120;-49
2021/01/08 05:46:25;;;;;;;0.10;0.00;;;19.60;38.90;;;;;;5045013;28;20022;-48
2021/01/08 05:48:52;;;;;;;0.17;0.00;;;19.50;38.90;;;;;;5037243;28;20023;-49
2021/01/08 05:51:20;;;;;;;0.75;0.10;;;19.50;38.90;;;;;;5046594;28;20056;-49
2021/01/08 05:53:47;;;;;;;0.20;0.00;;;19.50;38.90;;;;;;5036627;28;20036;-48
2021/01/08 05:56:17;;;;;;;0.30;0.10;;;19.50;39.00;;;;;;5050163;28;20373;-49
2021/01/08 05:58:44;;;;;;;0.20;0.00;;;19.50;39.00;;;;;;5075803;23;20037;-54
2021/01/08 06:01:11;;;;;;;0.20;0.10;;;19.50;39.10;;;;;;5064265;28;20155;-52
2021/01/08 06:03:38;;;;;;;0.25;0.00;;;19.50;38.90;;;;;;5066738;28;20116;-51
2021/01/08 06:06:05;;;;;;;0.10;0.00;;;19.50;39.10;;;;;;5070354;28;20028;-53
2021/01/08 06:08:41;;;;;;;0.20;0.00;;;19.50;39.10;;;;;;5069174;28;20031;-51
2021/01/08 06:11:12;;;;;;;0.30;0.00;;;19.50;39.10;;;;;;5072744;28;20456;-50
2021/01/08 06:13:39;;;;;;;0.20;0.08;;;19.50;38.90;;;;;;5074438;28;20048;-51
2021/01/08 06:16:05;;;;;;;0.10;0.00;;;19.50;39.10;;;;;;5071628;28;20504;-54
2021/01/08 06:18:36;;;;;;;0.47;0.10;;;19.40;39.20;;;;;;5077823;28;20037;-48
2021/01/08 06:21:09;;;;;;;0.20;0.00;;;19.50;39.30;;;;;;5071714;28;20037;-47
2021/01/08 06:23:43;;;;;;;0.10;0.00;;;19.60;39.20;;;;;;5069976;28;20686;-52
2021/01/08 06:26:13;;;;;;;0.20;0.08;;;19.70;39.10;;;;;;5067981;28;20016;-51
2021/01/08 06:28:42;;;;;;;0.10;0.00;;;19.80;38.80;;;;;;5073061;28;20105;-48
2021/01/08 06:31:23;;;;;;;0.25;0.08;;;20.00;38.70;;;;;;5071634;28;20052;-53
2021/01/08 06:34:02;;;;;;;0.08;0.00;;;20.00;38.50;;;;;;5068438;28;20048;-54
2021/01/08 06:36:30;;;;;;;0.10;0.00;;;20.20;38.40;;;;;;5079272;28;20405;-51
2021/01/08 06:38:58;;;;;;;0.10;0.00;;;20.30;38.40;;;;;;5073393;28;20520;-49
2021/01/08 06:41:24;;;;;;;0.10;0.00;;;20.30;38.30;;;;;;5073901;28;20044;-48
2021/01/08 06:44:03;;;;;;;0.05;0.00;;;20.40;38.20;;;;;;5070426;28;20032;-50
2021/01/08 06:46:34;;;;;;;0.03;0.00;;;20.40;38.20;;;;;;5066086;28;20090;-52
2021/01/08 06:49:03;;;;;;;0.15;0.00;;;20.40;38.10;;;;;;5075395;28;20024;-54
2021/01/08 06:51:34;;;;;;;0.77;0.00;;;20.40;38.00;;;;;;5073003;28;20257;-52
2021/01/08 06:54:04;;;;;;;0.13;0.00;;;20.50;38.00;;;;;;5087839;28;20050;-49
2021/01/08 06:56:48;;;;;;;0.00;0.00;;;20.50;38.00;;;;;;5078422;28;20074;-49
2021/01/08 06:59:17;;;;;;;0.08;0.00;;;20.50;38.00;;;;;;5071830;28;20045;-53
2021/01/08 07:01:58;;;;;;;0.10;0.00;;;20.50;38.00;;;;;;5074664;28;20040;-48
2021/01/08 07:04:25;;;;;;;0.10;0.00;;;20.50;37.90;;;;;;5084315;28;20032;-52
2021/01/08 07:06:53;;;;;;;0.05;0.00;;;20.60;37.90;;;;;;5082267;28;20059;-53
2021/01/08 07:09:19;;;;;;;0.10;0.00;;;20.60;37.90;;;;;;5087621;28;20472;-48
2021/01/08 07:11:53;;;;;;;0.00;0.00;;;20.60;37.90;;;;;;5072106;28;20021;-50
2021/01/08 07:14:22;;;;;;;0.13;0.00;;;20.60;37.80;;;;;;5078584;28;20036;-51
2021/01/08 07:16:52;;;;;;;0.10;0.00;;;20.60;37.90;;;;;;5077748;28;20657;-52
2021/01/08 07:19:19;;;;;;;0.10;0.00;;;20.60;37.90;;;;;;5083754;28;20027;-53
2021/01/08 07:21:56;;;;;;;0.10;0.00;;;20.70;37.90;;;;;;5069082;28;20020;-53
2021/01/08 07:24:30;;;;;;;0.32;0.10;;;20.70;38.00;;;;;;5062001;28;20500;-48
2021/01/08 07:27:20;;;;;;;0.22;0.00;;;20.60;38.00;;;;;;5062305;28;20025;-52
2021/01/08 07:29:50;;;;;;;0.10;0.00;;;20.60;38.10;;;;;;5065017;28;20081;-53
2021/01/08 07:32:31;;;;;;;0.10;0.00;;;20.60;38.20;;;;;;5076203;28;20043;-50
2021/01/08 07:34:57;;;;;;;0.08;0.00;;;20.60;38.20;;;;;;5071580;28;20024;-51
2021/01/08 07:38:01;;;;;;;0.20;0.05;;;20.50;38.20;;;;;;5074449;28;20051;-51
2021/01/08 07:40:29;;;;;;;0.20;0.00;;;20.50;38.30;;;;;;5071192;28;20036;-53
2021/01/08 07:43:11;;;;;;;0.10;0.00;;;20.50;38.40;;;;;;5087202;28;20034;-53
2021/01/08 07:45:56;;;;;;;0.13;0.00;;;20.50;38.50;;;;;;5080501;28;20036;-52
2021/01/08 07:48:38;;;;;;;0.10;0.00;;;20.50;38.50;;;;;;5077772;28;20032;-52
2021/01/08 07:51:08;;;;;;;0.10;0.00;;;20.40;38.60;;;;;;5071955;28;20497;-52
2021/01/08 07:53:48;;;;;;;0.45;0.00;;;20.40;38.80;;;;;;5080165;28;20097;-51
2021/01/08 07:56:24;;;;;;;0.57;0.00;;;20.30;38.80;;;;;;5071642;28;20048;-52
2021/01/08 07:58:57;;;;;;;1.27;0.10;;;20.30;38.80;;;;;;5068368;28;20036;-49
2021/01/08 08:01:22;;;;;;;0.77;0.00;;;20.30;38.70;;;;;;5070003;28;20060;-52
2021/01/08 08:03:57;;;;;;;0.15;0.00;;;20.30;38.60;;;;;;5069770;28;20040;-51
2021/01/08 08:06:23;;;;;;;0.28;0.15;;;20.30;38.60;;;;;;5077658;28;20039;-53
2021/01/08 08:08:49;;;;;;;0.40;0.00;;;20.20;38.50;;;;;;5072722;28;20029;-52
2021/01/08 08:11:18;;;;;;;1.52;0.10;;;20.20;38.60;;;;;;5079871;28;20032;-50
2021/01/08 08:13:44;;;;;;;1.48;0.00;;;20.20;38.50;;;;;;5068320;28;20039;-50
2021/01/08 08:16:10;;;;;;;0.30;0.10;;;20.10;38.30;;;;;;5073345;28;20510;-54
2021/01/08 08:18:52;;;;;;;0.15;0.00;;;20.10;38.50;;;;;;5069813;28;20063;-53
2021/01/08 08:21:18;;;;;;;0.55;0.00;;;20.10;38.70;;;;;;5069751;28;20040;-51
2021/01/08 08:23:54;;;;;;;0.43;0.00;;;20.00;38.70;;;;;;5081005;28;20024;-49
2021/01/08 08:26:20;;;;;;;0.30;0.10;;;20.00;38.80;;;;;;5067864;28;20493;-51
2021/01/08 08:29:03;;;;;;;0.20;0.00;;;20.00;38.80;;;;;;5073207;28;20036;-54
2021/01/08 08:31:32;;;;;;;0.20;0.10;;;20.00;38.80;;;;;;5079864;28;20527;-52
2021/01/08 08:33:58;;;;;;;0.30;0.10;;;20.10;38.70;;;;;;5078383;28;20032;-51
2021/01/08 08:36:25;;;;;;;0.20;0.00;;;20.20;38.60;;;;;;5073002;28;20036;-50
2021/01/08 08:38:59;;;;;;;0.50;0.00;;;20.30;38.40;;;;;;5069154;28;20097;-51
2021/01/08 08:41:25;;;;;;;0.63;0.10;;;20.40;38.30;;;;;;5069601;28;20602;-49
2021/01/08 08:44:01;;;;;;;0.20;0.00;;;20.50;38.20;;;;;;5068623;28;20429;-53
2021/01/08 08:46:51;;;;;;;0.40;0.10;;;20.50;38.10;;;;;;5066279;28;20036;-54
2021/01/08 08:49:25;;;;;;;0.20;0.10;;;20.50;38.10;;;;;;5068038;28;20029;-52
2021/01/08 08:51:55;;;;;;;0.52;0.10;;;20.60;38.00;;;;;;5068033;28;20078;-54
2021/01/08 08:54:24;;;;;;;0.57;0.10;;;20.60;37.90;;;;;;5078459;28;20465;-52
2021/01/08 08:56:53;;;;;;;1.00;0.10;;;20.70;37.80;;;;;;5068900;28;20798;-52
2021/01/08 08:59:54;;;;;;;0.82;0.20;;;20.70;37.70;;;;;;5066613;28;20037;-50
2021/01/08 09:02:25;;;;;;;0.52;0.10;;;20.80;37.70;;;;;;5027072;28;20410;-48
2021/01/08 09:04:56;;;;;;;0.30;0.10;;;20.80;37.80;;;;;;5056254;28;20078;-48
2021/01/08 09:07:37;;;;;;;3.78;0.10;;;20.90;37.70;;;;;;5068187;28;20051;-47
2021/01/08 09:10:09;;;;;;;0.40;0.10;;;20.90;37.70;;;;;;5064192;28;20059;-49
2021/01/08 09:12:52;;;;;;;0.82;0.20;;;20.90;37.80;;;;;;5062052;28;20098;-50
2021/01/08 09:15:26;;;;;;;0.70;0.20;;;20.90;37.90;;;;;;5056454;28;20078;-49
2021/01/08 09:18:06;;;;;;;1.42;0.28;;;21.00;38.00;;;;;;5067303;28;20028;-49
2021/01/08 09:20:36;;;;;;;0.73;0.20;;;21.00;38.00;;;;;;5065518;28;20450;-49
2021/01/08 09:23:01;;;;;;;1.08;0.30;;;21.00;38.20;;;;;;5065368;28;20041;-47
2021/01/08 09:25:27;;;;;;;2.47;0.20;;;21.00;38.20;;;;;;5065935;28;20382;-50
2021/01/08 09:27:53;;;;;;;1.00;0.40;;;21.00;38.20;;;;;;5064763;28;20129;-48
2021/01/08 09:30:19;;;;;;;1.77;0.38;;;21.10;38.20;;;;;;5066534;28;20516;-50
2021/01/08 09:32:45;;;;;;;1.27;0.40;;;21.20;38.40;;;;;;5067772;28;20033;-50
2021/01/08 09:35:10;;;;;;;1.02;0.30;;;21.20;38.40;;;;;;5069860;28;20035;-49
2021/01/08 09:37:42;;;;;;;1.33;0.52;;;21.30;38.40;;;;;;5069708;28;20051;-47
2021/01/08 09:40:12;;;;;;;2.72;0.47;;;21.30;38.40;;;;;;5067663;28;20085;-48
2021/01/08 09:42:38;;;;;;;1.58;0.60;;;21.30;38.50;;;;;;5074836;28;20109;-47
2021/01/08 09:45:26;;;;;;;1.48;0.32;;;21.30;38.60;;;;;;5069675;28;20033;-48
2021/01/08 09:47:52;;;;;;;1.85;0.57;;;21.40;38.50;;;;;;5081182;28;20067;-46
2021/01/08 09:50:29;;;;;;;1.38;0.65;;;21.30;38.70;;;;;;5069749;28;20021;-48
2021/01/08 09:53:00;;;;;;;1.50;0.60;;;21.30;38.80;;;;;;5074327;28;20473;-48
2021/01/08 09:55:30;;;;;;;1.33;0.45;;;21.30;38.90;;;;;;5060200;28;20036;-50
2021/01/08 09:57:58;;;;;;;3.85;0.35;;;21.30;39.00;;;;;;5073538;28;20039;-47
2021/01/08 10:00:36;;;;;;;1.65;0.65;;;21.30;38.90;;;;;;5069144;28;20402;-44
2021/01/08 10:03:05;;;;;;;1.50;0.40;;;21.30;39.10;;;;;;5068194;28;20032;-50
2021/01/08 10:05:35;;;;;;;1.50;0.70;;;21.40;39.00;;;;;;5070540;28;20021;-47
2021/01/08 10:08:03;;;;;;;1.67;0.60;;;21.40;38.90;;;;;;5070398;28;20040;-49
2021/01/08 10:10:28;;;;;;;1.83;0.50;;;21.40;38.90;;;;;;5069332;28;20074;-49
2021/01/08 10:12:59;;;;;;;3.47;0.82;;;21.50;39.00;;;;;;5070157;28;20032;-48
2021/01/08 10:15:35;;;;;;;3.85;0.45;;;21.40;38.90;;;;;;5067825;28;20486;-51
2021/01/08 10:18:08;;;;;;;1.77;0.80;;;21.40;39.00;;;;;;5070181;28;20040;-50
2021/01/08 10:20:42;;;;;;;1.67;0.45;;;21.40;39.10;;;;;;5068735;28;20025;-48
2021/01/08 10:23:10;;;;;;;1.45;0.70;;;21.40;39.20;;;;;;5068482;28;20514;-46
2021/01/08 10:25:36;;;;;;;3.60;0.73;;;21.30;39.20;;;;;;5072235;28;20036;-55
2021/01/08 10:28:23;;;;;;;2.92;1.00;;;21.30;39.20;;;;;;5073179;28;20035;-53
2021/01/08 10:30:53;;;;;;;2.72;0.68;;;21.30;39.30;;;;;;5073955;28;20025;-53
2021/01/08 10:33:25;;;;;;;3.53;0.52;;;21.30;39.30;;;;;;5069019;28;20094;-52
2021/01/08 10:35:53;;;;;;;1.35;0.60;;;21.30;39.30;;;;;;5068546;28;20032;-49
2021/01/08 10:38:19;;;;;;;2.55;0.80;;;21.20;39.50;;;;;;5066628;28;20036;-44
2021/01/08 10:40:45;;;;;;;2.58;1.10;;;21.20;39.50;;;;;;5068247;28;20506;-48
2021/01/08 10:43:11;;;;;;;3.13;0.65;;;21.20;39.50;;;;;;5068232;28;20036;-50
2021/01/08 10:45:37;;;;;;;1.25;0.70;;;21.20;39.50;;;;;;5068167;28;20486;-48
2021/01/08 10:48:04;;;;;;;1.95;0.88;;;21.10;39.60;;;;;;5061560;28;20044;-50
2021/01/08 10:50:29;;;;;;;3.15;0.98;;;21.10;39.60;;;;;;5065454;28;20445;-49
2021/01/08 10:52:55;;;;;;;1.30;0.43;;;21.20;39.50;;;;;;5069426;28;20024;-58
2021/01/08 10:55:20;;;;;;;1.80;0.50;;;21.30;39.30;;;;;;5070790;28;20036;-60
2021/01/08 10:57:46;;;;;;;1.83;0.70;;;21.40;39.10;;;;;;5065623;28;20036;-52
2021/01/08 11:00:13;;;;;;;0.73;0.47;;;21.40;39.00;;;;;;5069408;28;20068;-51
2021/01/08 11:02:40;;;;;;;1.08;0.30;;;21.50;38.90;;;;;;5072953;28;20112;-51
2021/01/08 11:05:06;;;;;;;1.55;0.38;;;21.50;38.90;;;;;;5066498;28;20094;-51
2021/01/08 11:07:33;;;;;;;1.77;0.45;;;21.60;38.90;;;;;;5062724;28;20059;-52
2021/01/08 11:10:00;;;;;;;1.13;0.47;;;21.70;39.00;;;;;;5076126;28;20032;-50
2021/01/08 11:12:26;;;;;;;1.33;0.45;;;21.70;39.00;;;;;;5064718;28;20032;-51
2021/01/08 11:14:53;;;;;;;1.00;0.30;;;21.70;39.00;;;;;;5066931;28;20404;-53
2021/01/08 11:17:18;;;;;;;1.42;0.30;;;21.70;39.10;;;;;;5068938;28;20020;-52
2021/01/08 11:19:44;;;;;;;0.98;0.40;;;21.70;39.20;;;;;;5068804;28;20112;-53
2021/01/08 11:22:09;;;;;;;1.00;0.40;;;21.70;39.40;;;;;;5066888;28;20040;-54
2021/01/08 11:24:37;;;;;;;2.55;0.45;;;21.70;39.40;;;;;;5073399;28;20024;-48
2021/01/08 11:27:03;;;;;;;2.03;0.40;;;21.70;39.30;;;;;;5068673;28;20519;-51
2021/01/08 11:29:29;;;;;;;1.15;0.32;;;21.70;39.30;;;;;;5063033;28;20339;-52
2021/01/08 11:31:55;;;;;;;3.72;0.70;;;21.70;39.30;;;;;;5069458;28;20079;-54
2021/01/08 11:34:20;;;;;;;0.95;0.40;;;21.80;39.20;;;;;;5076417;28;20059;-52
2021/01/08 11:36:46;;;;;;;1.15;0.30;;;21.80;39.10;;;;;;5062088;28;20774;-52
2021/01/08 11:39:14;;;;;;;1.58;0.50;;;21.90;39.10;;;;;;5065024;28;20020;-48
2021/01/08 11:41:39;;;;;;;1.00;0.45;;;21.90;38.90;;;;;;5081460;28;20039;-49
2021/01/08 11:44:06;;;;;;;1.30;0.40;;;21.90;38.90;;;;;;5068620;28;20487;-49
2021/01/08 11:46:32;;;;;;;0.73;0.32;;;21.90;38.90;;;;;;5071557;28;20063;-51
2021/01/08 11:48:58;;;;;;;0.70;0.20;;;22.00;38.80;;;;;;5073177;28;20511;-46
2021/01/08 11:51:23;;;;;;;1.05;0.38;;;21.90;38.90;;;;;;5067938;28;20032;-44
2021/01/08 11:53:50;;;;;;;0.75;0.30;;;21.90;38.90;;;;;;5067511;28;20086;-53
2021/01/08 11:56:16;;;;;;;1.65;0.45;;;21.90;39.00;;;;;;5068452;28;20058;-50
2021/01/08 11:58:43;;;;;;;2.88;0.30;;;21.90;39.30;;;;;;5074241;28;20082;-48
2021/01/08 12:01:09;;;;;;;0.80;0.20;;;21.90;39.10;;;;;;5056851;22;20053;-46
2021/01/08 12:03:37;;;;;;;2.20;0.47;;;21.80;39.20;;;;;;5026296;28;20029;-44
2021/01/08 12:06:04;;;;;;;1.05;0.40;;;21.80;39.30;;;;;;5028058;28;20026;-48
2021/01/08 12:08:31;;;;;;;2.50;0.50;;;21.70;39.30;;;;;;5027908;28;20037;-48
2021/01/08 12:10:57;;;;;;;0.90;0.30;;;21.70;39.30;;;;;;5031494;28;20013;-51
2021/01/08 12:13:23;;;;;;;0.65;0.20;;;21.70;39.30;;;;;;5029886;28;20041;-49
2021/01/08 12:15:49;;;;;;;1.90;0.70;;;21.70;39.60;;;;;;5025070;28;20128;-45
2021/01/08 12:18:15;;;;;;;2.13;0.60;;;21.60;39.60;;;;;;5021362;28;20030;-41
2021/01/08 12:20:41;;;;;;;0.93;0.50;;;21.60;39.60;;;;;;5025102;28;20031;-46
2021/01/08 12:23:06;;;;;;;1.35;0.55;;;21.60;39.80;;;;;;5018346;28;20034;-48
2021/01/08 12:25:37;;;;;;;1.90;0.50;;;21.50;39.70;;;;;;5021680;28;20105;-50
2021/01/08 12:28:07;;;;;;;1.08;0.40;;;21.50;39.80;;;;;;5014304;28;20044;-48
2021/01/08 12:30:32;;;;;;;1.20;0.47;;;21.50;39.80;;;;;;5026384;28;20033;-51
2021/01/08 12:33:00;;;;;;;1.00;0.38;;;21.50;39.90;;;;;;5027265;28;20036;-48
2021/01/08 12:35:25;;;;;;;2.38;0.60;;;21.50;39.70;;;;;;5025212;28;20513;-50
2021/01/08 12:37:51;;;;;;;1.00;0.45;;;21.50;39.70;;;;;;5031260;28;20029;-47
2021/01/08 12:40:17;;;;;;;2.65;0.43;;;21.50;39.80;;;;;;5034984;28;20030;-51
2021/01/08 12:42:43;;;;;;;2.65;0.40;;;21.50;39.80;;;;;;5031367;28;20104;-49
2021/01/08 12:45:09;;;;;;;2.78;0.60;;;21.50;39.80;;;;;;5034831;28;20521;-49
2021/01/08 12:47:36;;;;;;;2.88;0.40;;;21.40;39.80;;;;;;5054657;28;20371;-48
2021/01/08 12:50:03;;;;;;;1.25;0.43;;;21.40;39.80;;;;;;5034850;28;20048;-50
2021/01/08 12:52:28;;;;;;;1.40;0.55;;;21.40;39.90;;;;;;5025817;28;20048;-49
2021/01/08 12:54:54;;;;;;;1.40;0.70;;;21.40;39.90;;;;;;5031956;28;20617;-50
2021/01/08 12:57:20;;;;;;;2.17;0.47;;;21.50;40.30;;;;;;5028740;28;20061;-48